Time;durP1;ratioP1;P1;durP2;ratioP2;P2;SDS_P1;SDS_P2;PMS_P1;PMS_P2;Temp;Humidity;BMP_temperature;BMP_pressure;BME280_temperature;BME280_humidity;BME280_pressure;Samples;Min_cycle;Max_cycle;Signal;HPM_P1;HPM_P2
2022/06/05 00:01:27;;;;;;;9.57;6.25;;;17.10;94.80;;;;;;5028447;28;20022;-71
2022/06/05 00:04:08;;;;;;;7.03;5.70;;;17.20;94.00;;;;;;5029411;28;20120;-71
2022/06/05 00:06:42;;;;;;;6.75;5.90;;;17.10;94.70;;;;;;5024537;28;20076;-71
2022/06/05 00:09:29;;;;;;;8.85;6.82;;;17.10;93.90;;;;;;5028185;28;20463;-71
2022/06/05 00:12:02;;;;;;;11.52;6.75;;;17.10;94.50;;;;;;5028410;28;20053;-71
2022/06/05 00:14:28;;;;;;;11.48;6.65;;;17.10;95.50;;;;;;5028177;28;20109;-71
2022/06/05 00:16:54;;;;;;;10.30;6.07;;;17.30;95.30;;;;;;5029266;28;20069;-71
2022/06/05 00:19:20;;;;;;;9.10;7.00;;;17.10;95.10;;;;;;5028277;28;20104;-71
2022/06/05 00:21:45;;;;;;;10.27;7.00;;;17.00;95.20;;;;;;5028241;28;20117;-71
2022/06/05 00:24:11;;;;;;;7.60;5.47;;;17.20;99.90;;;;;;5028079;28;20026;-71
2022/06/05 00:26:50;;;;;;;12.10;7.18;;;17.00;95.20;;;;;;5029484;28;20463;-71
2022/06/05 00:29:19;;;;;;;7.93;5.53;;;17.00;94.40;;;;;;5024070;28;20025;-71
2022/06/05 00:32:19;;;;;;;9.13;5.97;;;17.10;95.30;;;;;;5029090;28;20025;-71
2022/06/05 00:34:44;;;;;;;12.07;7.40;;;17.00;95.10;;;;;;5028775;28;20045;-71
2022/06/05 00:37:18;;;;;;;9.55;7.05;;;16.90;95.50;;;;;;5028838;28;20092;-71
2022/06/05 00:40:18;;;;;;;7.78;5.70;;;17.00;95.10;;;;;;5029197;28;20456;-71
2022/06/05 00:42:44;;;;;;;8.48;7.57;;;16.90;95.30;;;;;;5029034;28;20434;-72
2022/06/05 00:45:12;;;;;;;9.27;6.82;;;16.90;95.60;;;;;;5028937;28;20028;-71
2022/06/05 00:47:39;;;;;;;9.30;6.50;;;18.00;96.20;;;;;;5028604;28;20033;-72
2022/06/05 00:50:15;;;;;;;7.65;6.47;;;16.80;95.90;;;;;;5028850;28;20025;-71
2022/06/05 00:52:48;;;;;;;9.07;7.28;;;16.80;96.50;;;;;;5028515;28;20554;-71
2022/06/05 00:55:15;;;;;;;8.73;6.80;;;16.80;95.60;;;;;;5028539;28;20080;-71
2022/06/05 00:57:41;;;;;;;10.68;6.43;;;16.70;99.90;;;;;;5028471;28;20136;-73
2022/06/05 01:00:17;;;;;;;8.50;6.35;;;16.60;96.20;;;;;;5011167;28;20144;-71
2022/06/05 01:02:45;;;;;;;11.10;6.75;;;16.60;96.70;;;;;;5022625;28;20040;-71
2022/06/05 01:05:12;;;;;;;8.05;6.35;;;18.30;97.30;;;;;;5028742;28;20408;-71
2022/06/05 01:07:38;;;;;;;9.77;6.68;;;16.60;96.60;;;;;;5028784;28;20025;-71
2022/06/05 01:10:06;;;;;;;9.75;6.88;;;16.60;96.40;;;;;;5028624;28;20704;-71
2022/06/05 01:13:10;;;;;;;7.60;6.53;;;16.50;96.50;;;;;;5028143;28;20028;-72
2022/06/05 01:16:05;;;;;;;9.23;7.18;;;16.50;96.30;;;;;;5028395;28;20033;-71
2022/06/05 01:18:43;;;;;;;8.23;6.03;;;16.40;96.20;;;;;;5020252;28;20356;-71
2022/06/05 01:21:08;;;;;;;7.88;6.97;;;17.60;97.50;;;;;;5028695;28;20048;-71
2022/06/05 01:23:36;;;;;;;8.77;7.53;;;16.50;96.90;;;;;;5014308;28;20022;-71
2022/06/05 01:26:08;;;;;;;8.75;7.32;;;16.40;96.40;;;;;;5008235;28;20034;-71
2022/06/05 01:28:40;;;;;;;12.48;8.55;;;17.20;97.70;;;;;;5008740;28;20025;-71
2022/06/05 01:31:29;;;;;;;13.38;8.20;;;16.30;97.70;;;;;;5008766;28;20022;-71
2022/06/05 01:34:32;;;;;;;8.63;7.20;;;16.30;97.60;;;;;;5008784;28;20041;-71
2022/06/05 01:37:12;;;;;;;11.40;7.43;;;16.30;97.00;;;;;;5009211;28;20402;-72
2022/06/05 01:39:47;;;;;;;11.10;7.00;;;16.20;96.80;;;;;;5008737;28;20033;-72
2022/06/05 01:42:23;;;;;;;9.68;6.40;;;16.20;98.20;;;;;;5008377;28;20018;-72
2022/06/05 01:44:51;;;;;;;10.40;8.63;;;16.20;99.90;;;;;;5008599;28;20415;-71
2022/06/05 01:47:22;;;;;;;10.27;7.72;;;16.20;98.00;;;;;;5007355;28;20038;-71
2022/06/05 01:49:57;;;;;;;9.82;7.55;;;17.80;98.50;;;;;;5008761;28;20024;-72
2022/06/05 01:52:37;;;;;;;12.30;8.73;;;16.20;99.90;;;;;;5014165;28;20331;-72
2022/06/05 01:55:09;;;;;;;8.55;7.55;;;15.90;99.90;;;;;;5015619;28;20025;-71
2022/06/05 01:57:36;;;;;;;10.63;8.00;;;16.10;98.10;;;;;;5009910;28;20109;-72
2022/06/05 02:00:11;;;;;;;10.48;7.68;;;16.00;98.30;;;;;;5011513;28;20038;-71
2022/06/05 02:02:47;;;;;;;10.48;7.93;;;16.00;97.50;;;;;;5012234;28;20053;-71
2022/06/05 02:05:18;;;;;;;11.27;9.02;;;15.90;98.00;;;;;;5010859;28;20034;-72
2022/06/05 02:07:52;;;;;;;12.25;8.52;;;15.90;99.00;;;;;;5012231;28;20052;-71
2022/06/05 02:10:33;;;;;;;12.07;8.63;;;15.90;99.20;;;;;;5011549;28;20034;-71
2022/06/05 02:13:01;;;;;;;9.73;8.73;;;15.80;99.90;;;;;;5011987;28;20437;-72
2022/06/05 02:15:29;;;;;;;12.10;9.73;;;15.20;99.90;;;;;;5012356;28;20518;-72
2022/06/05 02:17:59;;;;;;;11.23;7.93;;;15.80;99.50;;;;;;5011729;28;20030;-71
2022/06/05 02:20:25;;;;;;;9.05;8.13;;;15.70;99.70;;;;;;5012138;28;20034;-72
2022/06/05 02:22:51;;;;;;;13.48;9.57;;;15.70;99.60;;;;;;5021126;28;20040;-71
2022/06/05 02:25:20;;;;;;;12.57;9.40;;;15.50;99.90;;;;;;5031118;28;20021;-71
2022/06/05 02:27:46;;;;;;;9.80;8.82;;;15.60;99.90;;;;;;5031704;28;20021;-71
2022/06/05 02:30:14;;;;;;;10.60;8.63;;;15.70;99.90;;;;;;5031260;28;20544;-71
2022/06/05 02:33:04;;;;;;;13.55;9.73;;;15.80;99.90;;;;;;5031839;28;20028;-71
2022/06/05 02:35:41;;;;;;;10.80;8.82;;;15.50;99.90;;;;;;5030286;28;20029;-71
2022/06/05 02:38:07;;;;;;;11.57;8.48;;;15.40;99.90;;;;;;5028884;28;20124;-71
2022/06/05 02:40:45;;;;;;;12.70;9.75;;;15.30;99.90;;;;;;5029040;28;20093;-71
2022/06/05 02:43:27;;;;;;;14.57;9.95;;;15.40;99.90;;;;;;5027532;28;20087;-71
2022/06/05 02:46:07;;;;;;;14.45;10.18;;;15.40;99.90;;;;;;5029690;28;20064;-71
2022/06/05 02:48:38;;;;;;;15.10;10.05;;;15.10;99.90;;;;;;5029264;28;20077;-71
2022/06/05 02:51:22;;;;;;;13.45;10.18;;;15.30;99.90;;;;;;5028873;28;20022;-71
2022/06/05 02:53:54;;;;;;;16.05;9.15;;;15.00;99.90;;;;;;5014757;28;20025;-71
2022/06/05 02:56:20;;;;;;;12.40;9.77;;;15.20;99.90;;;;;;5030538;28;20026;-71
2022/06/05 02:58:49;;;;;;;13.70;10.65;;;14.90;99.90;;;;;;5031442;28;20032;-71
2022/06/05 03:03:59;;;;;;;12.07;10.13;;;15.00;99.90;;;;;;5030606;28;20080;-71
2022/06/05 03:06:27;;;;;;;11.70;9.77;;;14.90;99.90;;;;;;5030742;28;20454;-71
2022/06/05 03:08:53;;;;;;;13.93;10.02;;;15.20;99.90;;;;;;5030350;28;20079;-71
2022/06/05 03:11:18;;;;;;;16.05;11.40;;;15.00;99.90;;;;;;5030180;28;20040;-71
2022/06/05 03:13:44;;;;;;;15.25;11.55;;;14.80;99.90;;;;;;5030790;28;20029;-71
2022/06/05 03:16:09;;;;;;;19.30;12.30;;;15.20;99.90;;;;;;5030148;28;20030;-71
2022/06/05 03:18:35;;;;;;;12.35;10.43;;;14.80;99.90;;;;;;5030380;28;20107;-71
2022/06/05 03:21:00;;;;;;;12.93;9.57;;;14.90;99.90;;;;;;5030527;28;20684;-71
2022/06/05 03:23:26;;;;;;;12.82;10.40;;;14.80;99.90;;;;;;5029003;28;20093;-71
2022/06/05 03:25:53;;;;;;;15.90;12.93;;;14.90;99.90;;;;;;5010674;28;20104;-71
2022/06/05 03:28:19;;;;;;;16.67;11.38;;;14.90;99.90;;;;;;5010085;28;20088;-71
2022/06/05 03:30:45;;;;;;;15.10;12.10;;;14.90;99.90;;;;;;5010575;28;20022;-71
2022/06/05 03:33:11;;;;;;;14.20;12.30;;;14.80;99.90;;;;;;5010434;28;20057;-71
2022/06/05 03:35:39;;;;;;;16.27;11.43;;;15.00;99.90;;;;;;5010394;28;20029;-71
2022/06/05 03:38:05;;;;;;;15.68;9.32;;;14.90;99.90;;;;;;5009723;28;20025;-71
2022/06/05 03:40:32;;;;;;;14.13;12.45;;;14.90;99.90;;;;;;5010187;28;20026;-71
2022/06/05 03:42:58;;;;;;;19.45;11.93;;;14.70;99.90;;;;;;5010447;28;20052;-72
2022/06/05 03:45:23;;;;;;;15.07;10.65;;;15.00;99.90;;;;;;5010184;28;20368;-72
2022/06/05 03:47:50;;;;;;;14.35;11.93;;;;;;;;;;5010300;28;20034;-72
2022/06/05 03:50:17;;;;;;;17.08;10.73;;;14.90;99.90;;;;;;5010002;28;20022;-71
2022/06/05 03:52:43;;;;;;;15.38;11.18;;;14.90;99.90;;;;;;5009569;28;20061;-71
2022/06/05 03:55:16;;;;;;;15.20;11.02;;;14.70;99.90;;;;;;5023971;28;20037;-72
2022/06/05 03:57:41;;;;;;;13.25;10.95;;;14.50;99.90;;;;;;5029523;28;20045;-72
2022/06/05 04:00:09;;;;;;;17.08;11.27;;;14.90;99.90;;;;;;5029490;28;20025;-71
2022/06/05 04:02:35;;;;;;;15.52;11.68;;;14.90;99.90;;;;;;5029256;28;20033;-71
2022/06/05 04:05:02;;;;;;;12.75;10.75;;;15.00;99.90;;;;;;5029313;28;20033;-71
2022/06/05 04:07:28;;;;;;;11.43;10.05;;;15.00;99.90;;;;;;5029419;28;20025;-71
2022/06/05 04:09:53;;;;;;;12.90;10.55;;;15.10;99.90;;;;;;5029448;28;20056;-71
2022/06/05 04:12:19;;;;;;;13.05;10.35;;;15.00;99.90;;;;;;5029276;28;20051;-71
2022/06/05 04:14:44;;;;;;;11.57;10.27;;;14.80;99.90;;;;;;5029449;28;20144;-71
2022/06/05 04:17:11;;;;;;;11.18;9.90;;;15.00;99.90;;;;;;5029262;28;20098;-71
2022/06/05 04:19:36;;;;;;;12.77;11.20;;;17.50;99.90;;;;;;5029450;28;20459;-72
2022/06/05 04:22:02;;;;;;;14.00;10.63;;;15.00;99.90;;;;;;5028195;28;20029;-71
2022/06/05 04:24:28;;;;;;;13.70;11.00;;;15.40;99.90;;;;;;5017956;28;20090;-71
2022/06/05 04:26:53;;;;;;;15.93;11.80;;;15.10;99.90;;;;;;5009528;28;20030;-72
2022/06/05 04:29:19;;;;;;;12.98;10.38;;;16.00;99.90;;;;;;5009324;28;20089;-72
2022/06/05 04:31:46;;;;;;;12.32;10.82;;;15.20;99.90;;;;;;5009418;28;20049;-71
2022/06/05 04:34:15;;;;;;;15.48;12.88;;;14.90;99.90;;;;;;5009138;28;20022;-71
2022/06/05 04:36:41;;;;;;;12.85;10.90;;;15.30;99.90;;;;;;5008760;28;20573;-72
2022/06/05 04:39:07;;;;;;;11.70;10.60;;;15.60;99.90;;;;;;5021758;28;20469;-71
2022/06/05 04:41:33;;;;;;;13.57;10.95;;;15.40;99.90;;;;;;5028990;28;20041;-71
2022/06/05 04:43:58;;;;;;;14.23;10.98;;;15.40;99.90;;;;;;5028780;28;20084;-72
2022/06/05 04:46:27;;;;;;;14.85;11.38;;;15.40;99.90;;;;;;5029228;28;20025;-72
2022/06/05 04:48:52;;;;;;;13.73;11.60;;;15.30;99.90;;;;;;5028633;28;20155;-71
2022/06/05 04:51:21;;;;;;;12.85;11.10;;;15.50;99.90;;;;;;5028126;28;20623;-71
2022/06/05 04:53:49;;;;;;;12.98;11.05;;;15.40;99.90;;;;;;5027794;28;20025;-72
2022/06/05 04:56:17;;;;;;;13.82;12.43;;;15.70;99.90;;;;;;5028206;28;20112;-72
2022/06/05 04:58:42;;;;;;;12.77;11.13;;;15.10;99.90;;;;;;5028853;28;20030;-71
2022/06/05 05:01:23;;;;;;;11.73;10.25;;;15.70;99.90;;;;;;5028316;28;20497;-72
2022/06/05 05:03:53;;;;;;;15.63;12.48;;;15.80;99.90;;;;;;5027851;28;20061;-71
2022/06/05 05:06:19;;;;;;;15.88;11.98;;;15.70;99.90;;;;;;5026864;28;20485;-72
2022/06/05 05:08:44;;;;;;;18.65;12.57;;;15.80;99.90;;;;;;5028304;28;20026;-72
2022/06/05 05:11:10;;;;;;;14.55;11.32;;;15.70;99.90;;;;;;5028223;28;20102;-71
2022/06/05 05:13:35;;;;;;;15.95;12.45;;;15.70;99.90;;;;;;5028553;28;20540;-72
2022/06/05 05:16:01;;;;;;;12.20;10.40;;;15.80;99.90;;;;;;5028271;28;20025;-71
2022/06/05 05:18:27;;;;;;;11.75;8.77;;;15.90;99.90;;;;;;5027954;28;20529;-72
2022/06/05 05:20:53;;;;;;;14.70;10.55;;;15.90;99.90;;;;;;5028423;28;20022;-72
2022/06/05 05:23:19;;;;;;;15.93;11.57;;;15.80;99.90;;;;;;5024162;28;20061;-72
2022/06/05 05:25:46;;;;;;;16.77;12.98;;;16.00;99.90;;;;;;5023974;28;20025;-72
2022/06/05 05:28:11;;;;;;;13.02;9.88;;;15.90;99.90;;;;;;5008478;28;20395;-72
2022/06/05 05:30:37;;;;;;;16.98;10.77;;;16.00;99.90;;;;;;5008729;28;20057;-71
2022/06/05 05:33:03;;;;;;;13.48;10.18;;;16.10;99.90;;;;;;5009163;28;20857;-72
2022/06/05 05:35:28;;;;;;;13.90;11.80;;;15.90;99.90;;;;;;5012859;28;20034;-72
2022/06/05 05:37:54;;;;;;;15.32;11.45;;;16.00;99.90;;;;;;5012536;28;20057;-71
2022/06/05 05:43:04;;;;;;;;;;;16.00;99.90;;;;;;5012978;28;20176;-71
2022/06/05 05:45:29;;;;;;;14.77;12.70;;;15.90;99.90;;;;;;5012699;28;19996;-71
2022/06/05 05:47:55;;;;;;;13.27;10.57;;;15.90;99.90;;;;;;5012122;28;20022;-71
2022/06/05 05:50:21;;;;;;;11.77;10.27;;;16.40;99.90;;;;;;5012113;28;20494;-71
2022/06/05 05:52:46;;;;;;;13.77;11.52;;;15.90;99.90;;;;;;5012514;28;20022;-72
2022/06/05 05:55:15;;;;;;;13.52;10.23;;;15.90;99.90;;;;;;5025318;28;20025;-72
2022/06/05 05:57:41;;;;;;;11.30;9.93;;;16.00;99.90;;;;;;5026724;28;20033;-71
2022/06/05 06:00:10;;;;;;;12.65;10.50;;;16.00;99.90;;;;;;5030054;28;20048;-72
2022/06/05 06:02:36;;;;;;;12.82;11.63;;;16.00;99.90;;;;;;5030936;28;20032;-71
2022/06/05 06:05:03;;;;;;;14.40;12.43;;;16.20;99.90;;;;;;5030978;28;20026;-72
2022/06/05 06:07:29;;;;;;;16.40;12.27;;;16.00;99.90;;;;;;5030234;28;20053;-71
2022/06/05 06:09:55;;;;;;;13.77;11.65;;;16.00;99.90;;;;;;5031288;28;20095;-71
2022/06/05 06:12:22;;;;;;;12.23;10.20;;;16.10;99.90;;;;;;5031572;28;20025;-72
2022/06/05 06:14:48;;;;;;;14.20;11.70;;;16.20;99.90;;;;;;5031668;28;20049;-72
2022/06/05 06:17:13;;;;;;;13.90;12.48;;;16.20;99.90;;;;;;5031188;28;20072;-71
2022/06/05 06:19:39;;;;;;;13.95;10.38;;;16.20;99.90;;;;;;5031564;28;20053;-72
2022/06/05 06:22:05;;;;;;;12.95;11.15;;;17.00;99.90;;;;;;5031248;28;20033;-72
2022/06/05 06:24:31;;;;;;;15.40;12.02;;;16.30;99.90;;;;;;5030959;28;20033;-72
2022/06/05 06:26:57;;;;;;;12.65;11.45;;;16.40;99.90;;;;;;5031136;28;20052;-72
2022/06/05 06:29:22;;;;;;;12.40;10.73;;;16.40;99.90;;;;;;5031156;28;20029;-72
2022/06/05 06:31:48;;;;;;;11.63;10.63;;;16.60;99.90;;;;;;5030686;28;20040;-71
2022/06/05 06:34:14;;;;;;;11.40;10.30;;;16.50;99.90;;;;;;5025749;28;20029;-71
2022/06/05 06:36:40;;;;;;;13.70;10.65;;;16.60;99.90;;;;;;5030845;28;20072;-72
2022/06/05 06:39:06;;;;;;;11.90;10.60;;;16.60;99.90;;;;;;5029163;28;20025;-71
2022/06/05 06:41:31;;;;;;;12.35;9.20;;;16.60;99.90;;;;;;5030951;28;20090;-73
2022/06/05 06:43:57;;;;;;;12.25;11.05;;;16.80;99.90;;;;;;5030603;28;20122;-71
2022/06/05 06:46:23;;;;;;;12.65;10.07;;;16.70;99.90;;;;;;5029891;28;20031;-71
2022/06/05 06:48:49;;;;;;;14.82;11.40;;;16.40;99.80;;;;;;5027903;28;20110;-72
2022/06/05 06:51:16;;;;;;;13.20;11.90;;;16.80;99.90;;;;;;5028100;28;20030;-72
2022/06/05 06:53:42;;;;;;;12.82;10.85;;;18.30;99.90;;;;;;5030060;28;20064;-71
2022/06/05 06:56:12;;;;;;;14.00;11.65;;;17.20;99.90;;;;;;5029125;28;20479;-72
2022/06/05 06:58:39;;;;;;;13.13;10.70;;;17.10;98.70;;;;;;5016495;28;20037;-69
2022/06/05 07:01:05;;;;;;;12.75;10.98;;;17.10;99.80;;;;;;5010306;28;20032;-68
2022/06/05 07:03:33;;;;;;;12.45;11.13;;;17.30;99.40;;;;;;5010163;28;20058;-69
2022/06/05 07:06:00;;;;;;;11.40;10.10;;;18.40;99.50;;;;;;5010341;28;20049;-69
2022/06/05 07:08:26;;;;;;;11.07;9.98;;;17.50;99.10;;;;;;5011001;28;20036;-68
2022/06/05 07:10:51;;;;;;;9.90;8.93;;;17.70;98.90;;;;;;5010366;28;20097;-69
2022/06/05 07:13:17;;;;;;;11.25;10.05;;;17.80;98.60;;;;;;5010353;28;20457;-69
2022/06/05 07:15:43;;;;;;;11.18;10.10;;;18.10;99.90;;;;;;5009885;28;20045;-69
2022/06/05 07:18:08;;;;;;;9.73;8.75;;;18.00;98.10;;;;;;5014845;28;20037;-69
2022/06/05 07:20:37;;;;;;;11.05;8.85;;;19.00;98.10;;;;;;5030013;28;20059;-69
2022/06/05 07:23:02;;;;;;;10.73;9.43;;;18.30;97.80;;;;;;5028678;28;20029;-69
2022/06/05 07:25:30;;;;;;;11.10;10.13;;;18.40;97.50;;;;;;5026438;28;20087;-69
2022/06/05 07:27:55;;;;;;;12.63;10.50;;;18.50;97.40;;;;;;5017809;28;20032;-69
2022/06/05 07:30:21;;;;;;;10.75;9.32;;;18.80;99.90;;;;;;5009564;28;20029;-69
2022/06/05 07:32:47;;;;;;;10.02;9.00;;;18.60;97.00;;;;;;5010307;28;20026;-69
2022/06/05 07:35:13;;;;;;;10.02;8.93;;;18.70;96.70;;;;;;5008460;28;20037;-68
2022/06/05 07:37:40;;;;;;;11.80;10.60;;;18.80;96.60;;;;;;5010235;28;20053;-68
2022/06/05 07:40:06;;;;;;;10.73;9.73;;;18.80;99.90;;;;;;5009761;28;20398;-69
2022/06/05 07:42:34;;;;;;;9.55;8.23;;;18.90;96.20;;;;;;5008920;28;20492;-69
2022/06/05 07:45:00;;;;;;;12.32;10.50;;;19.30;96.10;;;;;;5009038;28;20037;-69
2022/06/05 07:47:26;;;;;;;10.40;9.40;;;20.30;96.00;;;;;;5010086;28;20112;-69
2022/06/05 07:49:52;;;;;;;9.98;9.07;;;19.20;95.60;;;;;;5010394;28;20064;-69
2022/06/05 07:55:02;;;;;;;;;;;20.00;94.90;;;;;;5013782;28;20092;-69
2022/06/05 07:57:27;;;;;;;9.90;8.35;;;19.30;95.90;;;;;;5010964;28;19921;-69
2022/06/05 07:59:53;;;;;;;10.82;9.73;;;20.20;95.30;;;;;;5029612;28;20053;-69
2022/06/05 08:02:24;;;;;;;8.80;7.88;;;19.40;95.00;;;;;;5028925;28;20032;-69
2022/06/05 08:04:51;;;;;;;10.40;8.35;;;20.60;95.60;;;;;;5029323;28;20112;-69
2022/06/05 08:07:24;;;;;;;9.25;8.45;;;19.60;94.90;;;;;;5028125;28;20100;-69
2022/06/05 08:09:52;;;;;;;9.30;7.55;;;20.10;94.90;;;;;;5017126;28;20159;-69
2022/06/05 08:12:19;;;;;;;11.82;10.23;;;20.00;94.20;;;;;;5028170;28;20034;-69
2022/06/05 08:14:48;;;;;;;7.90;7.15;;;20.70;94.00;;;;;;5028801;28;20021;-69
2022/06/05 08:17:17;;;;;;;12.52;8.38;;;20.20;93.90;;;;;;5028521;28;20030;-69
2022/06/05 08:19:43;;;;;;;9.95;7.95;;;20.50;93.80;;;;;;5029197;28;20022;-69
2022/06/05 08:22:10;;;;;;;8.93;8.15;;;20.50;93.30;;;;;;5028536;28;20116;-69
2022/06/05 08:24:36;;;;;;;9.32;8.52;;;20.70;93.10;;;;;;5028990;28;20426;-69
2022/06/05 08:27:02;;;;;;;8.98;8.02;;;20.70;93.00;;;;;;5028443;28;20354;-69
2022/06/05 08:29:28;;;;;;;9.32;8.52;;;20.90;92.80;;;;;;5027294;28;20497;-69
2022/06/05 08:31:53;;;;;;;9.40;7.95;;;21.00;92.50;;;;;;5029140;28;20034;-69
2022/06/05 08:34:20;;;;;;;9.52;8.15;;;21.10;92.30;;;;;;5028477;28;20154;-68
2022/06/05 08:36:47;;;;;;;9.25;8.35;;;21.00;92.30;;;;;;5028780;28;20037;-69
2022/06/05 08:42:12;;;;;;;8.70;8.00;;;21.00;92.40;;;;;;5027058;28;20477;-69
2022/06/05 08:44:56;;;;;;;9.30;8.20;;;21.20;92.50;;;;;;5029023;28;20040;-69
2022/06/05 08:47:29;;;;;;;7.18;6.47;;;21.30;91.60;;;;;;5027863;28;20123;-69
2022/06/05 08:50:20;;;;;;;8.98;8.07;;;21.50;92.30;;;;;;5028545;28;20072;-69
2022/06/05 08:53:14;;;;;;;7.45;6.75;;;22.70;92.40;;;;;;5028809;28;20025;-69
2022/06/05 08:55:43;;;;;;;8.85;7.78;;;21.50;92.00;;;;;;5028063;28;20541;-69
2022/06/05 08:58:36;;;;;;;9.45;8.65;;;21.70;91.80;;;;;;5026295;28;20037;-70
2022/06/05 09:01:17;;;;;;;9.35;8.45;;;22.00;91.00;;;;;;5010150;28;20045;-69
2022/06/05 09:04:03;;;;;;;8.77;8.07;;;22.80;92.30;;;;;;5028404;28;20067;-69
2022/06/05 09:06:31;;;;;;;8.43;7.72;;;21.90;91.80;;;;;;5028624;28;20025;-69
2022/06/05 09:08:58;;;;;;;9.65;8.60;;;22.10;90.50;;;;;;5028404;28;20414;-69
2022/06/05 09:11:58;;;;;;;9.52;8.63;;;22.20;91.30;;;;;;5024602;28;20367;-69
2022/06/05 09:14:47;;;;;;;9.48;8.63;;;22.30;90.50;;;;;;5008582;28;20018;-70
2022/06/05 09:17:16;;;;;;;9.15;8.25;;;22.50;90.20;;;;;;5008304;28;20045;-69
2022/06/05 09:19:44;;;;;;;9.93;8.48;;;22.60;90.80;;;;;;5008992;28;20074;-70
2022/06/05 09:22:17;;;;;;;8.80;8.07;;;22.70;90.70;;;;;;5008285;28;20036;-69
2022/06/05 09:24:55;;;;;;;9.65;8.85;;;22.70;91.10;;;;;;5008397;28;20030;-69
2022/06/05 09:27:58;;;;;;;9.95;9.15;;;25.00;90.50;;;;;;5008091;28;20022;-70
2022/06/05 09:30:37;;;;;;;9.33;8.47;;;23.00;89.90;;;;;;5008510;28;20030;-69
2022/06/05 09:33:16;;;;;;;10.40;9.40;;;23.00;90.60;;;;;;5008479;28;20311;-68
2022/06/05 09:35:55;;;;;;;9.52;8.63;;;23.30;90.60;;;;;;5008520;28;20022;-68
2022/06/05 09:38:28;;;;;;;8.13;7.43;;;23.30;90.40;;;;;;5008027;28;20041;-68
2022/06/05 09:41:16;;;;;;;9.30;8.43;;;23.40;90.20;;;;;;5008049;28;20025;-68
2022/06/05 09:44:22;;;;;;;8.25;7.55;;;23.40;88.90;;;;;;5008285;28;20034;-68
2022/06/05 09:46:52;;;;;;;8.20;7.40;;;23.40;89.10;;;;;;5008213;28;20057;-68
2022/06/05 09:49:44;;;;;;;8.13;7.47;;;23.50;90.10;;;;;;5007981;28;20030;-68
2022/06/05 09:52:22;;;;;;;7.82;7.25;;;23.40;87.60;;;;;;5007876;28;20332;-67
2022/06/05 09:54:57;;;;;;;6.82;6.32;;;23.60;89.70;;;;;;5007995;28;20129;-68
2022/06/05 10:00:30;;;;;;;8.55;7.20;;;23.60;87.70;;;;;;5007720;28;20091;-69
2022/06/05 10:03:05;;;;;;;8.40;7.55;;;23.60;88.70;;;;;;5007929;28;20054;-68
2022/06/05 10:05:36;;;;;;;7.60;6.90;;;23.90;89.00;;;;;;5008254;28;20033;-69
2022/06/05 10:08:05;;;;;;;6.28;5.88;;;23.50;88.60;;;;;;5007709;28;20105;-69
2022/06/05 10:10:38;;;;;;;7.65;6.95;;;23.50;88.70;;;;;;5021532;28;20025;-68
2022/06/05 10:13:40;;;;;;;6.80;6.30;;;23.60;89.10;;;;;;5026828;28;20030;-68
2022/06/05 10:16:11;;;;;;;6.50;5.93;;;23.60;87.70;;;;;;5027810;28;20053;-67
2022/06/05 10:18:50;;;;;;;7.78;7.22;;;23.90;89.20;;;;;;5026247;28;20041;-68
2022/06/05 10:21:20;;;;;;;6.72;6.20;;;23.50;89.10;;;;;;5027969;28;20021;-68
2022/06/05 10:23:53;;;;;;;6.97;6.43;;;23.50;88.60;;;;;;5031500;28;20029;-68
2022/06/05 10:26:22;;;;;;;7.43;6.80;;;23.40;87.60;;;;;;5031375;28;20033;-68
2022/06/05 10:28:52;;;;;;;7.32;6.68;;;23.30;88.80;;;;;;5030766;28;20040;-67
2022/06/05 10:31:21;;;;;;;6.35;5.85;;;23.20;96.80;;;;;;5031107;28;20182;-68
2022/06/05 10:34:16;;;;;;;7.55;6.78;;;23.30;89.60;;;;;;5011488;28;20030;-66
2022/06/05 10:36:51;;;;;;;7.57;6.97;;;23.30;87.80;;;;;;5011403;28;20021;-68
2022/06/05 10:39:22;;;;;;;7.03;6.50;;;23.10;86.90;;;;;;5010626;28;20030;-66
2022/06/05 10:41:57;;;;;;;6.22;5.82;;;23.30;90.00;;;;;;5026459;28;20057;-68
2022/06/05 10:44:42;;;;;;;7.40;6.90;;;23.20;88.60;;;;;;5010728;28;20055;-68
2022/06/05 10:47:32;;;;;;;11.02;7.35;;;23.20;90.20;;;;;;5026206;28;20482;-68
2022/06/05 10:50:17;;;;;;;8.43;7.60;;;23.10;90.10;;;;;;5010343;28;20042;-68
2022/06/05 10:53:11;;;;;;;6.72;6.22;;;23.00;90.30;;;;;;5010739;28;20076;-68
2022/06/05 10:55:55;;;;;;;;;;;23.00;89.10;;;;;;5011546;28;20413;-68
2022/06/05 10:58:41;;;;;;;7.65;6.95;;;22.90;89.30;;;;;;5014244;28;19944;-68
2022/06/05 11:01:12;;;;;;;5.95;5.55;;;22.90;90.00;;;;;;5018645;28;20040;-67
2022/06/05 11:03:58;;;;;;;7.30;6.75;;;24.00;90.80;;;;;;5030609;28;20057;-67
2022/06/05 11:06:50;;;;;;;7.10;6.40;;;22.90;90.20;;;;;;5029844;28;20075;-70
2022/06/05 11:09:27;;;;;;;8.05;7.35;;;22.90;90.20;;;;;;5027004;28;20021;-68
2022/06/05 11:14:58;;;;;;;7.88;7.05;;;22.90;90.20;;;;;;5030906;28;20398;-70
2022/06/05 11:17:27;;;;;;;8.05;7.45;;;22.80;90.90;;;;;;5030522;28;20045;-69
2022/06/05 11:20:06;;;;;;;7.53;6.82;;;22.80;89.30;;;;;;5030332;28;20025;-69
2022/06/05 11:22:34;;;;;;;7.35;6.72;;;23.50;91.00;;;;;;5029898;28;20028;-69
2022/06/05 11:25:21;;;;;;;8.23;7.53;;;23.00;90.60;;;;;;5030835;28;20108;-68
2022/06/05 11:28:11;;;;;;;7.53;7.03;;;22.80;90.90;;;;;;5030471;28;20025;-69
2022/06/05 11:30:49;;;;;;;7.60;6.85;;;22.80;90.30;;;;;;5029794;28;20030;-69
2022/06/05 11:33:27;;;;;;;7.53;6.82;;;22.80;90.20;;;;;;5029793;28;20518;-70
2022/06/05 11:36:17;;;;;;;6.28;5.88;;;22.90;91.20;;;;;;5029776;28;20613;-69
2022/06/05 11:39:07;;;;;;;7.32;6.82;;;22.70;90.30;;;;;;5029985;28;20037;-69
2022/06/05 11:41:43;;;;;;;7.80;7.10;;;22.60;90.40;;;;;;5029858;28;20104;-67
2022/06/05 11:44:28;;;;;;;7.60;6.95;;;22.60;90.50;;;;;;5030038;28;20048;-69
2022/06/05 11:47:02;;;;;;;7.95;7.35;;;22.70;90.60;;;;;;5028709;28;20025;-69
2022/06/05 11:49:55;;;;;;;7.80;7.18;;;22.60;91.30;;;;;;5028160;28;20441;-68
2022/06/05 11:52:54;;;;;;;7.45;6.90;;;22.70;90.70;;;;;;5028673;28;20025;-70
2022/06/05 11:55:33;;;;;;;7.57;6.97;;;22.60;90.70;;;;;;5028831;28;20029;-70
2022/06/05 11:58:08;;;;;;;8.55;7.75;;;22.60;90.90;;;;;;5028586;28;20471;-68
2022/06/05 12:00:55;;;;;;;7.90;7.28;;;22.50;91.80;;;;;;5028941;28;20029;-68
2022/06/05 12:03:32;;;;;;;7.65;7.05;;;22.40;91.40;;;;;;5028474;28;20095;-69
2022/06/05 12:06:13;;;;;;;7.68;7.10;;;22.30;91.50;;;;;;5028785;28;20179;-68
2022/06/05 12:08:55;;;;;;;9.45;7.85;;;22.10;91.90;;;;;;5029084;28;20017;-68
2022/06/05 12:11:26;;;;;;;9.57;8.77;;;22.10;92.30;;;;;;5028803;28;20166;-68
2022/06/05 12:14:23;;;;;;;9.10;8.38;;;22.10;92.30;;;;;;5029430;28;20097;-68
2022/06/05 12:17:16;;;;;;;9.55;8.85;;;21.90;93.00;;;;;;5025935;28;20030;-68
2022/06/05 12:20:16;;;;;;;9.73;8.93;;;21.90;93.40;;;;;;5028134;28;20486;-69
2022/06/05 12:23:03;;;;;;;11.20;10.35;;;21.90;93.90;;;;;;5027978;28;20427;-69
2022/06/05 12:25:47;;;;;;;13.23;12.13;;;21.80;94.80;;;;;;5027650;28;20354;-69
2022/06/05 12:28:18;;;;;;;12.30;11.18;;;21.70;95.40;;;;;;5026455;28;20076;-68
2022/06/05 12:30:49;;;;;;;12.13;11.20;;;21.80;96.80;;;;;;5026951;28;20399;-68
2022/06/05 12:33:25;;;;;;;14.57;13.27;;;21.30;97.20;;;;;;5026569;28;20068;-69
2022/06/05 12:35:55;;;;;;;13.30;12.13;;;21.20;96.80;;;;;;5025712;28;20120;-68
2022/06/05 12:38:38;;;;;;;13.25;12.07;;;21.80;97.90;;;;;;5027517;28;20143;-68
2022/06/05 12:41:24;;;;;;;12.82;11.80;;;21.20;97.20;;;;;;5027490;28;20100;-68
2022/06/05 12:44:04;;;;;;;13.65;12.63;;;21.20;97.40;;;;;;5027141;28;20024;-69
2022/06/05 12:46:36;;;;;;;13.88;12.75;;;21.20;98.50;;;;;;5028321;28;20087;-69
2022/06/05 12:49:35;;;;;;;15.03;13.67;;;21.10;97.90;;;;;;5026765;28;20037;-68
2022/06/05 12:52:22;;;;;;;18.08;16.58;;;21.00;98.60;;;;;;5028834;28;20272;-69
2022/06/05 12:55:10;;;;;;;14.55;13.43;;;20.90;99.00;;;;;;5027643;28;20534;-69
2022/06/05 12:58:12;;;;;;;16.10;14.90;;;20.80;99.30;;;;;;5027872;28;20487;-69
2022/06/05 13:00:46;;;;;;;17.40;15.98;;;20.70;99.70;;;;;;5006508;28;20510;-68
2022/06/05 13:03:19;;;;;;;16.90;15.60;;;20.70;99.40;;;;;;5006024;28;20057;-68
2022/06/05 13:05:57;;;;;;;19.20;17.63;;;20.60;99.90;;;;;;5006312;28;20483;-68
2022/06/05 13:08:44;;;;;;;17.98;16.55;;;20.60;99.90;;;;;;5006472;28;20394;-69
2022/06/05 13:11:17;;;;;;;16.10;14.88;;;21.30;99.90;;;;;;5006700;28;20101;-69
2022/06/05 13:13:49;;;;;;;18.00;16.70;;;20.60;99.90;;;;;;5006656;28;20128;-69
2022/06/05 13:16:30;;;;;;;17.15;15.75;;;18.40;99.90;;;;;;5006224;28;20030;-68
2022/06/05 13:19:23;;;;;;;17.33;15.73;;;20.70;99.90;;;;;;5006456;28;20132;-69
2022/06/05 13:22:32;;;;;;;15.90;14.45;;;20.50;99.90;;;;;;5006193;28;20149;-68
2022/06/05 13:25:21;;;;;;;16.73;15.43;;;20.50;99.90;;;;;;5006230;28;20045;-69